Time;durP1;ratioP1;P1;durP2;ratioP2;P2;SDS_P1;SDS_P2;PMS_P1;PMS_P2;Temp;Humidity;BMP_temperature;BMP_pressure;BME280_temperature;BME280_humidity;BME280_pressure;Samples;Min_cycle;Max_cycle;Signal;HPM_P1;HPM_P2
2022/07/26 00:00:28;;;;;;;5.20;2.22;;;25.10;67.00;;;;;;6987773;28;20437;-77
2022/07/26 00:03:51;;;;;;;5.93;2.20;;;25.10;66.00;;;;;;6989105;28;20428;-76
2022/07/26 00:07:13;;;;;;;6.65;2.35;;;25.10;67.20;;;;;;6987249;28;20431;-78
2022/07/26 00:10:36;;;;;;;6.30;2.30;;;25.10;65.80;;;;;;6983442;28;20432;-77
2022/07/26 00:14:00;;;;;;;5.50;2.40;;;25.00;65.80;;;;;;6987774;28;20967;-77
2022/07/26 00:17:22;;;;;;;5.95;2.13;;;24.90;66.10;;;;;;6981000;28;20811;-78
2022/07/26 00:20:45;;;;;;;6.85;2.28;;;24.90;66.80;;;;;;6989539;28;20434;-77
2022/07/26 00:24:09;;;;;;;5.80;2.28;;;24.80;68.50;;;;;;6987395;28;20427;-77
2022/07/26 00:27:31;;;;;;;5.82;2.10;;;24.70;68.50;;;;;;6986056;28;20440;-77
2022/07/26 00:30:54;;;;;;;6.57;2.30;;;24.80;68.10;;;;;;6985003;28;20454;-75
2022/07/26 00:34:16;;;;;;;5.40;2.33;;;24.80;68.90;;;;;;6979954;28;20493;-76
2022/07/26 00:37:39;;;;;;;6.15;1.85;;;24.60;70.70;;;;;;6988096;28;20936;-78
2022/07/26 00:41:01;;;;;;;4.95;2.00;;;24.60;68.00;;;;;;6986205;28;20509;-77
2022/07/26 00:44:23;;;;;;;5.25;1.90;;;24.40;68.90;;;;;;6987559;28;20479;-77
2022/07/26 00:47:46;;;;;;;5.23;1.90;;;24.30;69.40;;;;;;6984053;28;20881;-78
2022/07/26 00:51:09;;;;;;;4.50;1.55;;;24.20;70.00;;;;;;6985522;28;20463;-78
2022/07/26 00:54:31;;;;;;;5.32;1.70;;;24.30;70.30;;;;;;6986276;28;20444;-78
2022/07/26 00:57:54;;;;;;;5.00;2.00;;;24.30;70.60;;;;;;6982365;28;20436;-78
2022/07/26 01:01:16;;;;;;;4.65;1.65;;;24.30;70.70;;;;;;6981747;28;20435;-77
2022/07/26 01:04:39;;;;;;;3.78;1.50;;;24.30;70.60;;;;;;6994017;28;20515;-77
2022/07/26 01:08:01;;;;;;;4.43;1.60;;;24.30;70.70;;;;;;6992088;28;20435;-78
2022/07/26 01:11:24;;;;;;;4.22;1.40;;;24.30;70.80;;;;;;6984845;28;20570;-77
2022/07/26 01:14:46;;;;;;;5.18;1.67;;;24.30;71.00;;;;;;6993511;28;20432;-76
2022/07/26 01:18:08;;;;;;;4.68;1.70;;;24.30;71.40;;;;;;6984801;28;20442;-78
2022/07/26 01:21:32;;;;;;;5.25;1.60;;;24.20;71.60;;;;;;6987835;28;20466;-77
2022/07/26 01:24:54;;;;;;;4.77;1.63;;;24.10;72.60;;;;;;6993320;28;20427;-77
2022/07/26 01:28:17;;;;;;;5.40;1.52;;;24.10;72.50;;;;;;6987306;28;20950;-76
2022/07/26 01:31:39;;;;;;;4.95;1.70;;;24.10;72.70;;;;;;6987270;28;20438;-77
2022/07/26 01:35:02;;;;;;;5.50;1.70;;;24.00;73.00;;;;;;6986220;28;20431;-78
2022/07/26 01:38:26;;;;;;;4.45;1.70;;;24.00;73.00;;;;;;6989675;28;20452;-76
2022/07/26 01:41:48;;;;;;;4.63;1.70;;;24.00;73.40;;;;;;6992601;28;20629;-78
2022/07/26 01:45:12;;;;;;;3.80;1.48;;;24.00;73.50;;;;;;6984611;28;20773;-78
2022/07/26 01:48:34;;;;;;;4.57;1.70;;;24.10;73.60;;;;;;6991210;28;20432;-77
2022/07/26 01:51:56;;;;;;;5.45;1.88;;;24.00;73.80;;;;;;6992352;28;20431;-76
2022/07/26 01:55:20;;;;;;;4.20;1.40;;;24.00;73.60;;;;;;6990535;28;20910;-76
2022/07/26 01:58:42;;;;;;;6.50;1.70;;;24.00;73.50;;;;;;6991975;28;20471;-77
2022/07/26 02:02:05;;;;;;;4.82;1.63;;;23.90;74.30;;;;;;6981001;28;20459;-76
2022/07/26 02:05:27;;;;;;;5.32;1.42;;;23.90;74.20;;;;;;6977878;28;20952;-79
2022/07/26 02:08:49;;;;;;;4.38;1.70;;;23.80;74.10;;;;;;6986665;28;20524;-77
2022/07/26 02:12:13;;;;;;;5.68;1.55;;;23.90;74.40;;;;;;6995546;28;20429;-76
2022/07/26 02:15:35;;;;;;;4.55;1.42;;;23.80;74.70;;;;;;6985574;28;20582;-78
2022/07/26 02:18:57;;;;;;;4.50;1.30;;;23.80;75.90;;;;;;6981846;28;20443;-76
2022/07/26 02:22:19;;;;;;;4.43;1.38;;;23.80;77.20;;;;;;6989555;28;20431;-75
2022/07/26 02:25:41;;;;;;;4.20;1.60;;;23.70;78.60;;;;;;6986287;28;20427;-77
2022/07/26 02:29:06;;;;;;;3.40;1.33;;;23.60;78.50;;;;;;6989584;28;20493;-76
2022/07/26 02:32:28;;;;;;;3.28;1.20;;;23.70;79.00;;;;;;6986967;28;20509;-76
2022/07/26 02:35:50;;;;;;;3.90;1.48;;;23.60;79.50;;;;;;6991742;28;20432;-77
2022/07/26 02:39:13;;;;;;;3.72;1.30;;;23.70;79.60;;;;;;6988766;28;20490;-77
2022/07/26 02:42:35;;;;;;;4.38;1.30;;;23.60;79.90;;;;;;6979113;28;20431;-74
2022/07/26 02:45:58;;;;;;;3.45;1.30;;;23.70;80.10;;;;;;6986293;28;21480;-75
2022/07/26 02:49:21;;;;;;;4.13;1.30;;;23.80;79.90;;;;;;6988767;28;20428;-76
2022/07/26 02:52:45;;;;;;;3.72;1.38;;;23.70;80.60;;;;;;6985584;28;20484;-79
2022/07/26 02:56:08;;;;;;;4.43;1.40;;;23.80;81.20;;;;;;6979057;28;20432;-78
2022/07/26 02:59:30;;;;;;;4.40;1.63;;;23.80;81.80;;;;;;6987439;28;20461;-80
2022/07/26 03:02:53;;;;;;;3.65;1.42;;;23.80;82.30;;;;;;6986101;28;20427;-77
2022/07/26 03:06:16;;;;;;;3.45;1.40;;;23.80;83.00;;;;;;6988413;28;20431;-80
2022/07/26 03:09:38;;;;;;;3.60;1.60;;;23.80;83.40;;;;;;6990745;28;20431;-78
2022/07/26 03:13:00;;;;;;;4.40;1.50;;;23.80;83.40;;;;;;6990436;28;20470;-77
2022/07/26 03:16:22;;;;;;;4.05;1.60;;;23.90;83.50;;;;;;6988925;28;20445;-77
2022/07/26 03:19:46;;;;;;;4.35;1.50;;;23.90;83.40;;;;;;6982720;28;20451;-78
2022/07/26 03:23:08;;;;;;;3.35;1.42;;;23.90;83.50;;;;;;6981477;28;20432;-80
2022/07/26 03:26:30;;;;;;;4.53;1.50;;;23.90;83.70;;;;;;6989780;28;20475;-79
2022/07/26 03:29:52;;;;;;;3.65;1.50;;;23.90;84.00;;;;;;6985138;28;20438;-77
2022/07/26 03:33:14;;;;;;;3.22;1.30;;;23.90;84.50;;;;;;6986924;28;20444;-78
2022/07/26 03:36:38;;;;;;;4.18;1.42;;;23.90;84.50;;;;;;6986101;28;20433;-79
2022/07/26 03:40:00;;;;;;;3.92;1.50;;;23.90;84.50;;;;;;6986917;28;20431;-79
2022/07/26 03:43:22;;;;;;;3.35;1.45;;;23.90;84.60;;;;;;6985112;28;20449;-80
2022/07/26 03:46:44;;;;;;;4.65;1.60;;;24.00;85.10;;;;;;6989088;28;20486;-77
2022/07/26 03:50:08;;;;;;;5.33;1.50;;;23.90;85.60;;;;;;6981521;28;20442;-80
2022/07/26 03:53:33;;;;;;;3.10;1.40;;;23.90;86.00;;;;;;6984190;28;20444;-78
2022/07/26 03:56:55;;;;;;;3.22;1.30;;;23.80;85.50;;;;;;6978221;28;20429;-78
2022/07/26 04:00:17;;;;;;;4.60;1.50;;;23.80;86.10;;;;;;6969513;28;20430;-79
2022/07/26 04:03:39;;;;;;;4.78;1.60;;;23.80;86.30;;;;;;6968247;28;20457;-77
2022/07/26 04:07:01;;;;;;;5.00;1.50;;;23.80;86.00;;;;;;6968242;28;20432;-78
2022/07/26 04:10:25;;;;;;;4.10;1.47;;;23.90;86.60;;;;;;6976831;28;20431;-78
2022/07/26 04:13:47;;;;;;;4.10;1.40;;;23.80;86.80;;;;;;6995757;28;20501;-79
2022/07/26 04:17:09;;;;;;;4.17;1.50;;;23.80;86.50;;;;;;6995763;28;20904;-78
2022/07/26 04:20:31;;;;;;;3.47;1.50;;;23.80;87.50;;;;;;6995608;28;20474;-79
2022/07/26 04:23:53;;;;;;;4.90;1.55;;;23.70;87.20;;;;;;6995573;28;20431;-78
2022/07/26 04:27:17;;;;;;;3.50;1.35;;;23.70;86.20;;;;;;6969329;28;20436;-78
2022/07/26 04:30:39;;;;;;;3.67;1.30;;;23.60;86.00;;;;;;6967941;28;20429;-79
2022/07/26 04:34:01;;;;;;;4.40;1.50;;;23.50;85.40;;;;;;6968053;28;21653;-79
2022/07/26 04:37:23;;;;;;;4.40;1.50;;;23.30;86.10;;;;;;6972412;28;20425;-78
2022/07/26 04:40:45;;;;;;;3.83;1.50;;;23.30;86.40;;;;;;6975678;28;20432;-78
2022/07/26 04:44:09;;;;;;;4.50;1.30;;;23.20;86.70;;;;;;6982570;28;20433;-79
2022/07/26 04:47:31;;;;;;;3.70;1.38;;;23.10;86.80;;;;;;6977893;28;20428;-78
2022/07/26 04:50:54;;;;;;;4.13;1.40;;;23.10;87.20;;;;;;6975224;28;20437;-78
2022/07/26 04:54:19;;;;;;;4.50;1.75;;;23.10;87.70;;;;;;6973685;28;20811;-79
2022/07/26 04:57:41;;;;;;;4.50;1.40;;;23.20;88.30;;;;;;6972921;28;20490;-77
2022/07/26 05:01:05;;;;;;;5.20;1.50;;;23.10;87.60;;;;;;6972001;28;20444;-77
2022/07/26 05:04:27;;;;;;;3.58;1.40;;;23.10;87.20;;;;;;6973125;28;20429;-78
2022/07/26 05:07:52;;;;;;;3.40;1.47;;;23.10;88.20;;;;;;6979948;28;20431;-79
2022/07/26 05:11:14;;;;;;;3.33;1.30;;;23.10;88.30;;;;;;7000181;28;20434;-78
2022/07/26 05:14:36;;;;;;;4.40;1.50;;;23.00;87.80;;;;;;6999922;28;20522;-78
2022/07/26 05:18:05;;;;;;;4.47;1.60;;;22.90;88.10;;;;;;7000000;28;20484;-78
2022/07/26 05:21:27;;;;;;;6.70;1.90;;;22.90;88.90;;;;;;6989176;28;20476;-79
2022/07/26 05:24:49;;;;;;;4.82;1.60;;;23.00;88.70;;;;;;6972009;28;20790;-79
2022/07/26 05:28:11;;;;;;;3.75;1.48;;;23.00;89.60;;;;;;6971777;28;20881;-77
2022/07/26 05:31:33;;;;;;;3.97;1.50;;;23.00;88.80;;;;;;6970696;28;20475;-76
2022/07/26 05:34:57;;;;;;;3.40;1.50;;;22.70;89.80;;;;;;6970607;28;20437;-77
2022/07/26 05:38:19;;;;;;;5.25;1.63;;;22.70;90.00;;;;;;6971000;28;20871;-75
2022/07/26 05:41:41;;;;;;;3.90;1.50;;;22.50;90.00;;;;;;6970585;28;20429;-74
2022/07/26 05:45:04;;;;;;;4.53;1.50;;;22.50;90.30;;;;;;6970829;28;20922;-75
2022/07/26 05:48:26;;;;;;;4.00;1.55;;;22.60;90.50;;;;;;6971041;28;20426;-76
2022/07/26 05:51:50;;;;;;;4.70;1.70;;;22.60;90.40;;;;;;6998055;28;20447;-79
2022/07/26 05:55:12;;;;;;;3.97;1.70;;;22.50;90.60;;;;;;6997651;28;20440;-77
2022/07/26 05:58:34;;;;;;;6.68;2.50;;;22.40;90.80;;;;;;6997950;28;20427;-77
2022/07/26 06:01:56;;;;;;;3.78;1.70;;;22.60;91.00;;;;;;6997543;28;20534;-77
2022/07/26 06:05:18;;;;;;;4.25;1.88;;;22.40;91.00;;;;;;6996821;28;20474;-76
2022/07/26 06:08:42;;;;;;;3.60;1.60;;;22.30;91.10;;;;;;6997317;28;20430;-78
2022/07/26 06:12:05;;;;;;;6.35;2.10;;;22.30;91.50;;;;;;6995863;28;20917;-78
2022/07/26 06:15:27;;;;;;;4.10;1.85;;;22.40;91.70;;;;;;6997340;28;20479;-78
2022/07/26 06:18:49;;;;;;;5.32;2.30;;;22.20;91.60;;;;;;6986472;28;20442;-76
2022/07/26 06:22:11;;;;;;;6.00;2.20;;;22.30;91.30;;;;;;6997585;28;20439;-77
2022/07/26 06:25:35;;;;;;;7.40;2.55;;;22.40;91.40;;;;;;6998778;28;20430;-83
2022/07/26 06:29:01;;;;;;;7.40;2.40;;;21.90;91.40;;;;;;6440923;28;15753243;-90
2022/07/26 06:32:23;;;;;;;4.70;2.20;;;22.00;91.80;;;;;;7001574;28;20924;-85
2022/07/26 06:35:45;;;;;;;4.88;2.20;;;22.20;91.90;;;;;;6999773;28;20467;-78
2022/07/26 06:39:08;;;;;;;4.30;2.40;;;22.30;91.40;;;;;;6998292;28;20427;-78
2022/07/26 06:42:32;;;;;;;4.15;2.25;;;22.40;91.60;;;;;;6996491;28;20425;-78
2022/07/26 06:45:54;;;;;;;6.30;2.55;;;22.40;91.40;;;;;;6997819;28;20435;-77
2022/07/26 06:49:16;;;;;;;5.68;2.20;;;22.40;92.00;;;;;;6997862;28;20427;-77
2022/07/26 06:52:38;;;;;;;5.55;2.25;;;22.40;91.40;;;;;;6997639;28;20485;-76
2022/07/26 06:56:00;;;;;;;4.87;2.40;;;22.50;91.90;;;;;;6995543;28;20435;-78
2022/07/26 06:59:23;;;;;;;5.07;2.08;;;22.60;91.90;;;;;;6997013;28;20470;-78
2022/07/26 07:02:45;;;;;;;5.13;2.07;;;22.70;91.10;;;;;;6977313;28;20437;-76
2022/07/26 07:06:07;;;;;;;5.63;2.45;;;22.80;91.40;;;;;;6980667;28;20429;-77
2022/07/26 07:09:29;;;;;;;4.90;2.20;;;22.60;91.00;;;;;;6969988;28;20934;-77
2022/07/26 07:12:51;;;;;;;6.82;2.60;;;22.60;91.30;;;;;;6974936;28;20458;-75
2022/07/26 07:16:15;;;;;;;6.25;2.50;;;22.60;91.20;;;;;;6975776;28;20472;-76
2022/07/26 07:19:38;;;;;;;5.00;2.22;;;22.50;91.20;;;;;;6984868;28;20428;-76
2022/07/26 07:23:00;;;;;;;6.22;2.33;;;22.50;91.20;;;;;;6975704;28;20437;-77
2022/07/26 07:26:22;;;;;;;4.32;2.13;;;22.60;91.30;;;;;;6969545;28;20433;-77
2022/07/26 07:29:44;;;;;;;5.65;2.13;;;22.60;91.30;;;;;;6986067;28;20466;-77
2022/07/26 07:33:11;;;;;;;5.32;2.38;;;22.80;91.30;;;;;;6997094;28;20459;-77
2022/07/26 07:36:33;;;;;;;6.28;2.30;;;22.90;90.70;;;;;;6997139;28;20430;-77
2022/07/26 07:39:55;;;;;;;5.53;2.50;;;23.10;90.90;;;;;;6996912;28;20451;-77
2022/07/26 07:43:18;;;;;;;5.32;2.30;;;23.10;90.30;;;;;;6990266;28;20480;-76
2022/07/26 07:46:40;;;;;;;5.57;2.17;;;23.10;90.30;;;;;;6981088;28;20425;-76
2022/07/26 07:50:04;;;;;;;5.05;2.00;;;23.00;88.00;;;;;;6999321;28;20428;-75
2022/07/26 07:53:26;;;;;;;6.07;1.90;;;23.10;89.00;;;;;;7012400;28;20913;-78
2022/07/26 07:56:49;;;;;;;5.93;2.00;;;23.10;86.70;;;;;;7001463;28;20916;-77
2022/07/26 08:00:14;;;;;;;5.07;2.10;;;23.10;85.90;;;;;;6970231;28;20436;-78
2022/07/26 08:03:36;;;;;;;7.18;2.30;;;23.20;86.30;;;;;;6970479;28;20440;-76
2022/07/26 08:06:59;;;;;;;5.30;2.03;;;23.20;86.40;;;;;;6968853;28;20476;-76
2022/07/26 08:10:21;;;;;;;6.68;2.30;;;23.20;86.10;;;;;;6968270;28;20447;-76
2022/07/26 08:13:44;;;;;;;6.73;2.23;;;23.40;86.40;;;;;;6968576;28;20433;-76
2022/07/26 08:17:06;;;;;;;5.70;2.00;;;23.50;84.80;;;;;;6969522;28;20436;-78
2022/07/26 08:20:28;;;;;;;7.18;2.10;;;23.50;84.30;;;;;;6969613;28;20910;-76
2022/07/26 08:23:51;;;;;;;5.30;1.90;;;23.60;84.00;;;;;;6968725;28;20436;-76
2022/07/26 08:27:13;;;;;;;6.10;1.90;;;23.60;83.20;;;;;;6968144;28;20469;-76
2022/07/26 08:30:36;;;;;;;5.30;1.73;;;23.70;81.40;;;;;;6968214;28;20433;-75
2022/07/26 08:33:58;;;;;;;5.68;1.77;;;23.70;79.80;;;;;;6971822;28;20423;-77
2022/07/26 08:37:20;;;;;;;4.53;1.50;;;23.80;78.10;;;;;;6995640;28;20486;-77
2022/07/26 08:40:43;;;;;;;4.93;1.77;;;23.90;78.00;;;;;;6968488;28;20432;-77
2022/07/26 08:44:07;;;;;;;4.03;1.52;;;24.00;75.30;;;;;;6980909;28;20545;-76
2022/07/26 08:47:29;;;;;;;4.60;1.60;;;23.80;74.40;;;;;;6995857;28;20470;-76
2022/07/26 08:50:52;;;;;;;3.53;1.37;;;23.80;75.80;;;;;;6996776;28;20430;-75
2022/07/26 08:54:15;;;;;;;4.45;1.58;;;23.80;74.70;;;;;;6995636;28;20439;-77
2022/07/26 08:57:39;;;;;;;5.60;1.50;;;23.80;73.40;;;;;;6995382;28;20427;-77
2022/07/26 09:01:06;;;;;;;4.18;1.50;;;23.90;72.20;;;;;;6995929;28;20430;-76
2022/07/26 09:04:31;;;;;;;5.95;1.73;;;24.00;72.40;;;;;;6977311;28;20430;-78
2022/07/26 09:07:54;;;;;;;4.50;1.42;;;24.10;72.50;;;;;;6966973;28;20472;-78
2022/07/26 09:11:29;;;;;;;3.88;1.45;;;24.30;71.80;;;;;;6966318;28;20437;-76
2022/07/26 09:14:54;;;;;;;4.05;1.30;;;24.30;70.90;;;;;;6964541;28;20473;-78
2022/07/26 09:18:27;;;;;;;4.18;1.30;;;24.40;69.00;;;;;;6964033;28;20898;-76
2022/07/26 09:21:50;;;;;;;4.20;1.20;;;24.30;69.50;;;;;;6965151;28;20907;-77
2022/07/26 09:25:21;;;;;;;4.37;1.23;;;24.40;69.20;;;;;;6969354;28;20907;-78
2022/07/26 09:28:43;;;;;;;5.00;1.45;;;24.60;67.40;;;;;;6970553;28;20551;-79
2022/07/26 09:32:15;;;;;;;4.17;1.23;;;24.50;67.10;;;;;;6996297;28;20459;-76
2022/07/26 09:35:38;;;;;;;3.97;1.30;;;24.60;65.40;;;;;;6995410;28;20435;-78
2022/07/26 09:39:03;;;;;;;4.27;1.33;;;24.60;65.60;;;;;;6994487;28;20673;-77
2022/07/26 09:42:26;;;;;;;3.55;1.10;;;24.70;66.30;;;;;;6984128;28;20425;-77
2022/07/26 09:46:04;;;;;;;4.30;1.23;;;24.60;66.30;;;;;;6976942;28;20656;-77
2022/07/26 09:49:29;;;;;;;3.90;1.30;;;24.70;65.60;;;;;;6980717;28;20431;-78
2022/07/26 09:53:08;;;;;;;5.03;1.50;;;24.60;66.70;;;;;;6994572;28;20861;-75
2022/07/26 09:56:46;;;;;;;4.60;1.30;;;24.50;66.40;;;;;;6941660;28;20482;-77
2022/07/26 10:00:11;;;;;;;4.10;1.30;;;24.60;65.80;;;;;;6941149;28;20461;-78
2022/07/26 10:03:34;;;;;;;5.78;1.20;;;24.60;66.20;;;;;;6993932;28;21014;-75
2022/07/26 10:06:58;;;;;;;3.67;1.20;;;24.70;65.00;;;;;;6994039;28;20434;-77
2022/07/26 10:10:26;;;;;;;4.43;1.20;;;24.70;64.90;;;;;;6994647;28;20463;-77
2022/07/26 10:13:48;;;;;;;3.90;1.30;;;24.60;64.80;;;;;;6985990;28;20891;-79
2022/07/26 10:17:49;;;;;;;4.25;1.27;;;24.60;64.40;;;;;;6974214;28;20464;-78
2022/07/26 10:21:24;;;;;;;3.75;1.30;;;24.60;64.20;;;;;;6983207;28;20459;-78
2022/07/26 10:24:47;;;;;;;4.37;1.20;;;24.70;62.30;;;;;;6952203;28;20429;-79
2022/07/26 10:28:25;;;;;;;4.57;1.30;;;24.80;62.80;;;;;;6977368;28;20459;-77
2022/07/26 10:31:48;;;;;;;3.50;1.10;;;24.90;62.10;;;;;;6975807;28;20432;-77
2022/07/26 10:35:31;;;;;;;5.90;1.42;;;25.00;62.70;;;;;;6965670;28;20473;-77
2022/07/26 10:39:13;;;;;;;3.58;1.27;;;25.00;62.60;;;;;;6966714;28;20515;-76
2022/07/26 10:42:45;;;;;;;4.83;1.20;;;24.80;62.50;;;;;;6974892;28;20436;-78
2022/07/26 10:46:29;;;;;;;3.53;1.15;;;24.90;62.50;;;;;;6985408;28;20937;-77
2022/07/26 10:49:57;;;;;;;3.90;1.05;;;24.90;62.40;;;;;;6972280;28;20488;-79
2022/07/26 10:53:23;;;;;;;3.67;1.10;;;24.90;60.90;;;;;;6984471;28;20437;-79
2022/07/26 10:56:45;;;;;;;4.80;1.20;;;24.90;60.40;;;;;;6987584;28;20499;-79
2022/07/26 11:00:22;;;;;;;3.45;1.13;;;24.90;61.90;;;;;;6979709;28;20485;-79
2022/07/26 11:03:45;;;;;;;4.00;1.10;;;25.00;61.40;;;;;;6979764;28;20436;-77
2022/07/26 11:07:07;;;;;;;3.88;1.13;;;25.00;59.90;;;;;;6971926;28;20435;-77
2022/07/26 11:10:32;;;;;;;3.45;1.10;;;25.20;60.80;;;;;;6997592;28;20622;-79
2022/07/26 11:14:05;;;;;;;2.85;1.05;;;25.10;61.30;;;;;;6955331;28;20428;-78
2022/07/26 11:17:30;;;;;;;2.97;1.05;;;25.20;60.90;;;;;;6971684;28;20435;-77
2022/07/26 11:20:55;;;;;;;3.45;1.30;;;25.20;59.00;;;;;;6975163;28;20425;-79
2022/07/26 11:24:17;;;;;;;3.92;1.00;;;25.20;58.90;;;;;;6975089;28;20786;-77
2022/07/26 11:28:00;;;;;;;4.43;1.00;;;25.20;59.00;;;;;;6992501;28;20425;-78
2022/07/26 11:31:25;;;;;;;4.70;1.00;;;25.20;61.20;;;;;;6970051;28;20830;-77
2022/07/26 11:34:59;;;;;;;4.20;1.08;;;25.30;60.50;;;;;;6970223;28;20937;-77
2022/07/26 11:38:21;;;;;;;4.20;1.20;;;25.30;59.60;;;;;;6969287;28;20432;-78
2022/07/26 11:41:43;;;;;;;3.15;1.00;;;25.20;58.70;;;;;;6969539;28;20860;-77
2022/07/26 11:45:10;;;;;;;3.95;1.00;;;25.40;60.30;;;;;;6986317;28;20468;-80
2022/07/26 11:48:33;;;;;;;3.83;1.10;;;25.40;60.00;;;;;;6996462;28;20897;-77
2022/07/26 11:51:59;;;;;;;3.63;1.10;;;25.60;59.80;;;;;;6994539;28;20553;-77
2022/07/26 11:55:27;;;;;;;3.83;1.17;;;25.70;59.70;;;;;;6969530;28;20437;-77
2022/07/26 11:58:52;;;;;;;3.35;1.10;;;25.70;57.20;;;;;;6972251;28;20436;-77
2022/07/26 12:02:14;;;;;;;5.00;1.07;;;25.80;58.00;;;;;;6977451;28;20439;-77
2022/07/26 12:05:37;;;;;;;3.80;1.10;;;25.90;57.50;;;;;;6988306;28;20456;-76
2022/07/26 12:09:00;;;;;;;2.80;1.00;;;26.00;56.70;;;;;;6974444;28;20425;-79
2022/07/26 12:12:26;;;;;;;2.63;0.95;;;25.80;56.70;;;;;;6975691;28;20433;-78
2022/07/26 12:15:50;;;;;;;3.15;1.00;;;25.70;57.60;;;;;;6973914;28;20445;-78
2022/07/26 12:19:28;;;;;;;2.45;0.90;;;25.80;58.00;;;;;;6969003;28;20456;-80
2022/07/26 12:22:54;;;;;;;2.30;0.80;;;26.00;58.00;;;;;;6970327;28;20428;-77
2022/07/26 12:26:24;;;;;;;3.38;1.00;;;26.10;58.60;;;;;;6972940;28;21056;-78
2022/07/26 12:29:48;;;;;;;3.70;0.98;;;25.80;58.00;;;;;;6974984;28;20800;-77
2022/07/26 12:33:10;;;;;;;3.47;1.00;;;26.00;58.50;;;;;;6972035;28;20436;-77
2022/07/26 12:36:34;;;;;;;3.28;1.13;;;26.20;58.40;;;;;;6966262;28;20810;-78
2022/07/26 12:40:11;;;;;;;4.20;1.10;;;26.30;57.60;;;;;;6979253;28;20461;-77
2022/07/26 12:43:40;;;;;;;3.45;1.02;;;26.10;57.00;;;;;;6973028;28;20478;-76
2022/07/26 12:47:02;;;;;;;3.42;1.10;;;26.30;58.10;;;;;;6985303;28;20474;-78
2022/07/26 12:50:27;;;;;;;3.57;1.00;;;26.40;57.60;;;;;;6991178;28;21219;-78
2022/07/26 12:53:49;;;;;;;3.10;1.10;;;26.60;57.00;;;;;;6991207;28;20439;-75
2022/07/26 12:57:12;;;;;;;4.07;1.00;;;26.40;56.20;;;;;;6993820;28;20508;-77
2022/07/26 13:00:35;;;;;;;4.90;1.00;;;26.40;56.10;;;;;;6992665;28;20431;-77
2022/07/26 13:03:57;;;;;;;3.58;0.90;;;26.60;55.80;;;;;;6979004;28;20463;-76
2022/07/26 13:07:20;;;;;;;3.28;0.93;;;26.70;55.30;;;;;;6982749;28;20435;-79
2022/07/26 13:10:42;;;;;;;2.17;0.90;;;26.90;55.10;;;;;;6978579;28;20532;-77
2022/07/26 13:14:04;;;;;;;3.30;0.98;;;26.90;54.70;;;;;;6971565;28;20444;-79
2022/07/26 13:17:28;;;;;;;2.70;1.00;;;27.00;54.80;;;;;;6988320;28;20460;-78
2022/07/26 13:20:50;;;;;;;3.00;0.90;;;27.10;54.60;;;;;;6982362;28;20463;-76
2022/07/26 13:24:12;;;;;;;2.95;0.95;;;27.10;55.70;;;;;;6980631;28;20438;-78
2022/07/26 13:27:34;;;;;;;3.60;1.00;;;27.30;53.80;;;;;;6979781;28;20440;-79
2022/07/26 13:30:56;;;;;;;2.47;0.90;;;27.20;52.60;;;;;;6981990;28;20462;-79
2022/07/26 13:34:20;;;;;;;2.60;0.80;;;27.10;52.70;;;;;;6983955;28;20435;-78
2022/07/26 13:37:42;;;;;;;3.30;0.90;;;27.40;51.70;;;;;;6979308;28;20472;-78
2022/07/26 13:41:04;;;;;;;3.42;1.00;;;27.40;51.70;;;;;;6981318;28;20522;-78
2022/07/26 13:44:26;;;;;;;2.85;0.93;;;27.60;53.10;;;;;;6983464;28;20437;-76
2022/07/26 13:47:48;;;;;;;2.95;0.90;;;27.70;51.80;;;;;;6988323;28;20439;-78
2022/07/26 13:51:12;;;;;;;3.95;1.00;;;27.90;51.40;;;;;;6983138;28;20438;-79
2022/07/26 13:54:35;;;;;;;2.97;0.98;;;27.90;52.40;;;;;;6985508;28;20447;-77
2022/07/26 13:57:57;;;;;;;3.95;0.85;;;28.00;51.30;;;;;;6986722;28;20853;-79
2022/07/26 14:01:19;;;;;;;2.95;0.80;;;28.20;50.50;;;;;;6985517;28;20854;-79
2022/07/26 14:04:42;;;;;;;2.83;1.00;;;28.20;49.70;;;;;;6987707;28;20804;-78
2022/07/26 14:08:06;;;;;;;2.63;0.90;;;28.00;49.90;;;;;;6979506;28;20431;-79
2022/07/26 14:11:28;;;;;;;3.90;0.90;;;27.90;50.90;;;;;;6971006;28;20445;-77
2022/07/26 14:14:50;;;;;;;3.13;0.90;;;27.60;49.90;;;;;;6984875;28;20458;-78
2022/07/26 14:18:12;;;;;;;2.28;0.80;;;27.80;50.70;;;;;;6979952;28;20489;-78
2022/07/26 14:21:36;;;;;;;2.30;0.80;;;27.90;51.40;;;;;;6967567;28;20948;-78
2022/07/26 14:25:00;;;;;;;3.27;1.00;;;28.00;50.50;;;;;;6988024;28;20432;-78
2022/07/26 14:28:22;;;;;;;3.60;0.95;;;28.30;49.50;;;;;;6977799;28;20441;-80
2022/07/26 14:31:44;;;;;;;3.80;0.80;;;28.60;50.20;;;;;;6973355;28;21111;-77
2022/07/26 14:35:08;;;;;;;3.33;0.90;;;28.90;50.00;;;;;;6986790;28;20920;-78
2022/07/26 14:38:30;;;;;;;3.87;0.80;;;28.80;49.10;;;;;;6981142;28;20433;-77
2022/07/26 14:41:53;;;;;;;4.10;1.00;;;28.70;48.60;;;;;;6981800;28;20458;-78
2022/07/26 14:45:16;;;;;;;2.60;0.80;;;28.30;49.20;;;;;;6984577;28;20439;-77
2022/07/26 14:48:38;;;;;;;2.95;0.80;;;28.20;49.40;;;;;;6979353;28;20429;-76
2022/07/26 14:52:01;;;;;;;8.18;4.05;;;28.50;48.00;;;;;;6988160;28;20973;-79
2022/07/26 14:55:24;;;;;;;2.75;0.90;;;28.70;47.60;;;;;;6976390;28;20480;-79
2022/07/26 14:58:47;;;;;;;3.00;0.90;;;28.50;48.50;;;;;;6966567;28;20432;-78
2022/07/26 15:02:12;;;;;;;2.90;0.95;;;28.50;48.40;;;;;;6977068;28;20811;-80
2022/07/26 15:05:34;;;;;;;2.10;0.88;;;28.40;48.30;;;;;;6957812;28;20630;-78
2022/07/26 15:08:57;;;;;;;2.85;1.00;;;28.40;48.70;;;;;;6979388;28;20435;-78
2022/07/26 15:12:20;;;;;;;2.40;0.90;;;28.30;48.00;;;;;;6969537;28;20517;-76
2022/07/26 15:15:44;;;;;;;3.20;0.90;;;28.40;47.60;;;;;;6973939;28;20558;-80
2022/07/26 15:19:06;;;;;;;4.78;0.90;;;28.60;48.20;;;;;;6980944;28;20770;-77
2022/07/26 15:22:29;;;;;;;3.27;0.90;;;28.70;48.70;;;;;;6973009;28;20441;-78
2022/07/26 15:25:52;;;;;;;2.78;0.82;;;28.50;48.20;;;;;;6973210;28;20966;-78
2022/07/26 15:29:15;;;;;;;2.63;0.90;;;28.40;47.60;;;;;;6982885;28;20520;-79
2022/07/26 15:32:38;;;;;;;2.35;0.80;;;28.70;47.60;;;;;;6970829;28;20480;-78
2022/07/26 15:36:00;;;;;;;1.83;0.80;;;29.00;48.00;;;;;;6973061;28;20959;-76
2022/07/26 15:39:22;;;;;;;3.40;1.10;;;29.10;46.80;;;;;;6980775;28;20515;-78
2022/07/26 15:42:47;;;;;;;4.07;1.00;;;29.30;48.20;;;;;;6986011;28;20435;-76
2022/07/26 15:46:09;;;;;;;3.53;1.30;;;29.60;47.10;;;;;;6979908;28;20435;-77
2022/07/26 15:49:33;;;;;;;3.55;1.65;;;29.50;47.00;;;;;;6976914;28;20437;-78
2022/07/26 15:52:55;;;;;;;3.05;0.90;;;29.50;46.80;;;;;;6983723;28;20440;-77
2022/07/26 15:56:18;;;;;;;2.55;0.90;;;29.40;46.30;;;;;;6968041;28;20452;-77
2022/07/26 15:59:40;;;;;;;3.70;1.05;;;29.40;46.20;;;;;;6973876;28;20435;-79
2022/07/26 16:03:02;;;;;;;2.95;0.90;;;29.40;45.60;;;;;;6983998;28;20427;-77
2022/07/26 16:06:26;;;;;;;2.95;1.00;;;29.10;45.90;;;;;;6960694;28;20456;-77
2022/07/26 16:09:48;;;;;;;2.55;0.80;;;29.10;46.90;;;;;;6958916;28;20438;-78
2022/07/26 16:13:11;;;;;;;2.90;0.85;;;29.10;46.50;;;;;;6967457;28;21069;-75
2022/07/26 16:16:33;;;;;;;3.08;0.98;;;29.80;45.90;;;;;;6969952;28;20445;-76
2022/07/26 16:19:55;;;;;;;3.30;0.90;;;29.80;45.20;;;;;;6970735;28;20444;-77
2022/07/26 16:23:19;;;;;;;3.60;0.90;;;30.10;45.30;;;;;;6977933;28;20444;-77
2022/07/26 16:26:43;;;;;;;2.22;0.90;;;30.30;45.30;;;;;;6979929;28;20429;-77
2022/07/26 16:30:06;;;;;;;3.70;1.17;;;30.10;45.00;;;;;;6975458;28;20441;-76
2022/07/26 16:33:29;;;;;;;2.00;0.88;;;30.20;45.10;;;;;;6973807;28;20437;-76
2022/07/26 16:36:51;;;;;;;2.78;0.80;;;30.60;45.80;;;;;;6973402;28;20443;-79
2022/07/26 16:40:15;;;;;;;2.53;0.93;;;30.70;45.00;;;;;;6976189;28;20445;-77
2022/07/26 16:43:40;;;;;;;2.67;0.90;;;30.70;45.00;;;;;;6974862;28;20484;-78
2022/07/26 16:47:02;;;;;;;2.55;0.90;;;30.80;44.40;;;;;;6980249;28;20462;-77
2022/07/26 16:50:24;;;;;;;2.72;0.90;;;30.90;44.60;;;;;;6979892;28;20468;-78
2022/07/26 16:53:50;;;;;;;3.08;0.80;;;31.10;43.80;;;;;;6990305;28;20792;-79
2022/07/26 16:57:13;;;;;;;3.13;0.90;;;30.80;44.80;;;;;;6985321;28;20446;-78
2022/07/26 17:00:35;;;;;;;3.45;0.90;;;31.10;43.60;;;;;;6973878;28;20439;-78
2022/07/26 17:03:57;;;;;;;2.63;0.82;;;31.20;43.30;;;;;;6974959;28;20446;-77
2022/07/26 17:07:19;;;;;;;2.38;0.88;;;31.10;44.30;;;;;;6970730;28;20915;-78
2022/07/26 17:10:42;;;;;;;3.17;0.85;;;31.30;43.70;;;;;;6974346;28;20587;-77
2022/07/26 17:14:07;;;;;;;3.55;0.90;;;31.40;42.90;;;;;;6978368;28;20480;-77
2022/07/26 17:17:29;;;;;;;2.40;0.90;;;31.20;43.20;;;;;;6981614;28;20442;-80
2022/07/26 17:20:54;;;;;;;3.03;0.90;;;30.90;43.80;;;;;;6974205;28;20438;-77
2022/07/26 17:24:16;;;;;;;2.83;0.90;;;31.30;43.50;;;;;;6963570;28;20508;-76
2022/07/26 17:27:39;;;;;;;2.55;1.00;;;31.50;42.90;;;;;;6970839;28;20442;-78
2022/07/26 17:31:02;;;;;;;3.40;0.90;;;31.20;43.30;;;;;;6969956;28;20509;-78
2022/07/26 17:34:25;;;;;;;2.75;0.90;;;31.00;43.30;;;;;;6980927;28;20441;-77
2022/07/26 17:37:47;;;;;;;3.00;0.90;;;30.90;43.60;;;;;;6985206;28;20452;-76